createdAt,value
2022-10-26T04:05:04.973Z,8.14
2022-10-26T04:08:08.631Z,8.16
2022-10-26T04:11:11.365Z,8.17
2022-10-26T04:14:14.478Z,8.20
2022-10-26T04:17:17.082Z,8.25
2022-10-26T04:20:19.852Z,8.27
2022-10-26T04:23:22.480Z,8.29
2022-10-26T04:26:25.320Z,8.29
2022-10-26T04:29:27.825Z,8.33
2022-10-26T04:32:30.568Z,8.31
2022-10-26T04:35:33.320Z,8.31
2022-10-26T04:38:36.356Z,8.32
2022-10-26T04:41:38.865Z,8.27
2022-10-26T04:44:41.636Z,8.28
2022-10-26T04:47:44.173Z,8.34
2022-10-26T04:50:47.532Z,8.32
2022-10-26T04:53:50.118Z,8.34
2022-10-26T04:56:52.835Z,8.31
2022-10-26T05:00:00.520Z,8.27
2022-10-26T05:03:05.525Z,8.27
2022-10-26T05:06:08.053Z,8.27
2022-10-26T05:09:11.033Z,8.26
2022-10-26T05:12:13.491Z,8.28
2022-10-26T05:15:16.207Z,8.27
2022-10-26T05:18:18.814Z,8.25
2022-10-26T05:21:21.631Z,8.23
2022-10-26T05:24:24.185Z,8.17
2022-10-26T05:27:26.979Z,8.18
2022-10-26T05:30:30.410Z,8.11
2022-10-26T05:33:33.121Z,8.07
2022-10-26T05:36:35.544Z,8.07
2022-10-26T05:39:38.477Z,8.06
2022-10-26T05:42:40.955Z,7.99
2022-10-26T05:45:43.894Z,8.02
2022-10-26T05:48:46.463Z,7.98
2022-10-26T05:51:49.262Z,8.00
2022-10-26T05:54:51.889Z,7.98
2022-10-26T05:57:55.237Z,8.00
2022-10-26T06:01:18.228Z,8.06
2022-10-26T06:04:33.255Z,8.13
2022-10-26T06:07:36.053Z,8.16
2022-10-26T06:10:39.454Z,8.25
2022-10-26T06:13:42.169Z,8.31
2022-10-26T06:17:01.872Z,8.44
2022-10-26T06:20:39.631Z,8.56
2022-10-26T06:24:11.628Z,8.74
2022-10-26T06:27:38.898Z,9.00
2022-10-26T06:30:42.037Z,9.21
2022-10-26T06:33:44.809Z,9.49
2022-10-26T06:36:49.849Z,9.66
2022-10-26T06:39:54.797Z,9.84
2022-10-26T06:43:00.651Z,10.03
2022-10-26T06:59:48.457Z,11.62
2022-10-26T07:02:51.819Z,11.62
2022-10-26T07:05:54.934Z,11.07
2022-10-26T07:08:57.690Z,11.13
2022-10-26T07:12:00.372Z,11.29
2022-10-26T07:15:03.993Z,11.41
2022-10-26T07:18:07.983Z,11.55
2022-10-26T07:21:10.713Z,11.66
2022-10-26T07:24:13.109Z,11.76
2022-10-26T07:27:16.381Z,11.97
2022-10-26T07:30:18.975Z,12.14
2022-10-26T07:33:21.893Z,12.29
2022-10-26T07:36:24.474Z,12.52
2022-10-26T07:39:27.700Z,12.58
2022-10-26T07:42:30.180Z,12.67
2022-10-26T07:45:33.355Z,12.77
2022-10-26T07:48:35.801Z,12.94
2022-10-26T07:51:38.616Z,13.11
2022-10-26T07:54:41.303Z,13.32
2022-10-26T07:57:44.127Z,13.35
2022-10-26T08:00:46.725Z,13.34
2022-10-26T08:03:53.483Z,13.37
2022-10-26T08:06:55.897Z,13.29
2022-10-26T08:09:58.669Z,13.30
2022-10-26T08:13:01.093Z,13.30
2022-10-26T08:16:05.545Z,13.42
2022-10-26T08:19:08.117Z,13.78
2022-10-26T08:22:10.913Z,13.82
2022-10-26T08:25:16.353Z,13.79
2022-10-26T08:28:21.751Z,13.98
2022-10-26T08:31:24.388Z,13.81
2022-10-26T08:34:27.188Z,14.00
2022-10-26T08:37:29.893Z,14.07
2022-10-26T08:40:36.801Z,14.25
2022-10-26T08:43:54.719Z,14.29
2022-10-26T08:47:14.243Z,14.61
2022-10-26T08:50:25.365Z,14.78
2022-10-26T08:53:41.618Z,14.93
2022-10-26T08:56:52.927Z,15.02
2022-10-26T09:00:06.556Z,14.99
2022-10-26T09:03:14.427Z,15.06
2022-10-26T09:06:44.893Z,15.17
2022-10-26T09:09:59.827Z,15.35
2022-10-26T09:13:14.752Z,15.36
2022-10-26T09:16:23.224Z,15.26
2022-10-26T09:19:34.939Z,15.32
2022-10-26T09:22:52.527Z,15.69
2022-10-26T09:26:00.554Z,15.72
2022-10-26T09:29:06.812Z,15.90
2022-10-26T09:32:21.388Z,16.05
2022-10-26T09:35:33.971Z,16.32
2022-10-26T09:38:55.907Z,16.41
2022-10-26T09:42:22.290Z,16.50
2022-10-26T09:45:35.898Z,16.60
2022-10-26T09:48:45.364Z,16.67
2022-10-26T09:51:48.890Z,16.47
2022-10-26T09:54:51.359Z,16.38
2022-10-26T09:57:57.312Z,16.66
2022-10-26T10:01:00.028Z,16.56
2022-10-26T10:04:20.153Z,16.67
2022-10-26T10:07:22.586Z,16.98
2022-10-26T10:10:25.208Z,17.30
2022-10-26T10:13:33.397Z,17.52
2022-10-26T10:16:36.438Z,17.56
2022-10-26T10:19:39.394Z,17.47
2022-10-26T10:22:54.480Z,16.95
2022-10-26T10:26:13.304Z,16.65
2022-10-26T10:29:16.413Z,16.54
2022-10-26T10:32:21.318Z,16.65
2022-10-26T10:35:29.545Z,16.49
2022-10-26T10:38:38.756Z,16.53
2022-10-26T10:41:45.184Z,16.45
2022-10-26T10:44:53.220Z,16.56
2022-10-26T10:48:04.023Z,16.65
2022-10-26T10:51:12.544Z,16.71
2022-10-26T10:54:25.456Z,16.69
2022-10-26T10:57:39.521Z,16.69
2022-10-26T11:00:48.299Z,16.89
2022-10-26T11:04:20.705Z,17.12
2022-10-26T11:07:25.958Z,17.20
2022-10-26T11:10:34.327Z,17.25
2022-10-26T11:13:41.620Z,16.98
2022-10-26T11:16:49.050Z,16.88
2022-10-26T11:19:59.647Z,16.99
2022-10-26T11:23:26.121Z,17.31
2022-10-26T11:26:35.547Z,17.35
2022-10-26T11:29:55.143Z,17.30
2022-10-26T11:33:20.935Z,17.28
2022-10-26T11:36:25.181Z,17.13
2022-10-26T11:39:46.434Z,17.38
2022-10-26T11:42:57.890Z,18.07
2022-10-26T11:46:22.121Z,17.85
2022-10-26T11:49:42.206Z,18.75
2022-10-26T11:52:52.819Z,18.72
2022-10-26T11:55:57.560Z,18.80
2022-10-26T12:02:25.175Z,18.88
2022-10-26T12:05:40.295Z,18.27
2022-10-26T12:08:48.480Z,17.90
2022-10-26T12:12:06.415Z,17.73
2022-10-26T12:15:18.206Z,17.54
2022-10-26T12:18:36.865Z,17.70
2022-10-26T12:21:44.266Z,17.97
2022-10-26T12:25:24.723Z,17.76
2022-10-26T12:28:36.304Z,18.10
2022-10-26T12:31:38.972Z,18.20
2022-10-26T12:34:41.291Z,18.41
2022-10-26T12:37:43.997Z,18.56
2022-10-26T12:40:46.609Z,18.52
2022-10-26T12:43:49.915Z,18.38
2022-10-26T12:46:52.409Z,18.69
2022-10-26T12:50:18.552Z,18.97
2022-10-26T12:53:22.304Z,19.09
2022-10-26T12:56:35.736Z,19.10
2022-10-26T12:59:58.133Z,19.15
2022-10-26T13:03:21.514Z,19.00
2022-10-26T13:06:49.771Z,18.85
2022-10-26T13:09:58.102Z,18.80
2022-10-26T13:13:02.881Z,18.55
2022-10-26T13:16:11.140Z,18.49
2022-10-26T13:19:42.413Z,18.49
2022-10-26T13:22:47.930Z,18.39
2022-10-26T13:26:12.816Z,18.29
2022-10-26T13:29:16.080Z,18.45
2022-10-26T13:32:18.987Z,18.39
2022-10-26T13:35:24.558Z,18.29
2022-10-26T13:38:32.488Z,18.23
2022-10-26T13:41:38.975Z,18.03
2022-10-26T13:45:06.685Z,17.83
2022-10-26T13:48:20.451Z,17.76
2022-10-26T13:51:26.230Z,17.56
2022-10-26T13:54:46.299Z,17.40
2022-10-26T13:58:19.656Z,17.35
2022-10-26T14:01:25.896Z,17.23
2022-10-26T14:04:29.132Z,17.17
2022-10-26T14:07:37.616Z,17.10
2022-10-26T14:10:43.245Z,17.00
2022-10-26T14:13:48.808Z,16.89
2022-10-26T14:16:53.553Z,16.81
2022-10-26T14:19:56.927Z,16.85
2022-10-26T14:22:59.588Z,16.86
2022-10-26T14:26:03.112Z,16.83
2022-10-26T14:29:17.379Z,16.76
2022-10-26T14:32:33.509Z,16.72
2022-10-26T14:35:37.618Z,16.76
2022-10-26T14:38:45.600Z,16.74
2022-10-26T14:41:50.559Z,16.74
2022-10-26T14:44:53.234Z,16.67
2022-10-26T14:47:56.828Z,16.66
2022-10-26T14:50:59.701Z,16.54
2022-10-26T14:54:03.846Z,16.55
2022-10-26T14:57:36.719Z,16.54
2022-10-26T15:00:40.430Z,16.48
2022-10-26T15:03:51.149Z,16.44
2022-10-26T15:07:02.644Z,16.37
2022-10-26T15:10:06.156Z,16.35
2022-10-26T15:13:33.667Z,16.32
2022-10-26T15:16:36.272Z,16.28
2022-10-26T15:19:40.053Z,16.18
2022-10-26T15:22:54.069Z,16.16
2022-10-26T15:26:01.556Z,16.10
2022-10-26T15:29:04.058Z,16.07
2022-10-26T15:32:31.338Z,16.01
2022-10-26T15:35:33.893Z,15.97
2022-10-26T15:38:36.894Z,15.91
2022-10-26T15:41:46.921Z,15.85
2022-10-26T15:44:53.124Z,15.77
2022-10-26T15:47:58.949Z,15.76
2022-10-26T15:51:01.853Z,15.79
2022-10-26T15:54:05.215Z,15.76
